Time;durP1;ratioP1;P1;durP2;ratioP2;P2;SDS_P1;SDS_P2;PMS_P1;PMS_P2;Temp;Humidity;BMP_temperature;BMP_pressure;BME280_temperature;BME280_humidity;BME280_pressure;Samples;Min_cycle;Max_cycle;Signal;HPM_P1;HPM_P2
2022/12/06 00:01:19;;;;;;;8.85;5.07;;;;;;;0.73;100.00;97510.06;5028743;28;20121;-58
2022/12/06 00:03:50;;;;;;;8.95;5.38;;;;;;;0.49;100.00;97496.03;5028661;28;20133;-59
2022/12/06 00:06:19;;;;;;;7.97;4.87;;;;;;;0.38;100.00;97499.16;5022312;28;20069;-58
2022/12/06 00:08:46;;;;;;;8.23;4.95;;;;;;;0.39;100.00;97498.13;5008899;28;20287;-58
2022/12/06 00:11:16;;;;;;;9.60;4.75;;;;;;;0.35;100.00;97491.53;5026635;28;20068;-58
2022/12/06 00:13:43;;;;;;;8.45;4.97;;;;;;;0.17;100.00;97495.38;5029272;28;20050;-58
2022/12/06 00:16:15;;;;;;;7.40;4.93;;;;;;;0.19;100.00;97500.50;5028253;28;20152;-58
2022/12/06 00:18:43;;;;;;;7.55;5.03;;;;;;;0.22;100.00;97500.97;5026678;28;20045;-59
2022/12/06 00:21:10;;;;;;;6.82;4.55;;;;;;;0.18;100.00;97506.84;5019979;28;20076;-59
2022/12/06 00:23:38;;;;;;;7.57;4.50;;;;;;;0.09;100.00;97503.44;5021236;28;20124;-57
2022/12/06 00:26:06;;;;;;;7.50;4.30;;;;;;;0.11;100.00;97502.25;5015224;28;20244;-58
2022/12/06 00:28:33;;;;;;;7.45;4.65;;;;;;;0.10;100.00;97499.75;5028840;28;20343;-59
2022/12/06 00:31:01;;;;;;;7.57;4.80;;;;;;;0.12;100.00;97501.22;5027610;28;20044;-58
2022/12/06 00:33:28;;;;;;;9.95;5.20;;;;;;;0.19;100.00;97500.50;5028011;28;20061;-60
2022/12/06 00:35:59;;;;;;;7.57;5.05;;;;;;;0.15;100.00;97485.91;5017312;28;20045;-59
2022/12/06 00:38:26;;;;;;;7.72;5.00;;;;;;;-0.07;100.00;97483.94;5008857;28;20056;-59
2022/12/06 00:41:02;;;;;;;9.07;4.82;;;;;;;-0.03;100.00;97487.88;5011666;28;20107;-58
2022/12/06 00:43:29;;;;;;;8.05;5.30;;;;;;;0.08;100.00;97493.81;5028000;28;20046;-59
2022/12/06 00:45:55;;;;;;;9.10;5.72;;;;;;;0.05;100.00;97494.16;5011918;28;20053;-58
2022/12/06 00:48:22;;;;;;;10.90;6.13;;;;;;;0.05;100.00;97497.66;5028874;28;20053;-59
2022/12/06 00:50:49;;;;;;;8.13;5.03;;;;;;;0.07;100.00;97495.63;5009930;28;20045;-58
2022/12/06 00:53:16;;;;;;;9.27;4.93;;;;;;;0.13;100.00;97504.72;5023333;28;20085;-58
2022/12/06 00:55:43;;;;;;;9.25;5.32;;;;;;;0.09;100.00;97500.78;5009841;28;20394;-58
2022/12/06 00:58:11;;;;;;;10.27;5.60;;;;;;;-0.02;100.00;97497.56;5027752;28;20047;-58
2022/12/06 01:00:38;;;;;;;8.13;4.80;;;;;;;0.06;100.00;97499.31;5026895;28;20041;-59
2022/12/06 01:03:05;;;;;;;7.07;4.82;;;;;;;0.04;100.00;97492.50;5027858;28;20119;-59
2022/12/06 01:05:32;;;;;;;8.35;5.22;;;;;;;0.00;100.00;97489.38;5026529;28;20041;-59
2022/12/06 01:07:58;;;;;;;10.23;5.63;;;;;;;-0.03;100.00;97479.09;5027096;28;20053;-59
2022/12/06 01:10:25;;;;;;;10.57;5.80;;;;;;;-0.02;100.00;97486.91;5026683;28;20044;-58
2022/12/06 01:12:51;;;;;;;10.32;5.97;;;;;;;-0.02;100.00;97486.91;5027971;28;20069;-58
2022/12/06 01:15:18;;;;;;;9.30;5.72;;;;;;;0.01;100.00;97488.38;5027280;28;20132;-58
2022/12/06 01:17:44;;;;;;;10.85;5.93;;;;;;;-0.02;100.00;97488.72;5027742;28;20056;-58
2022/12/06 01:20:11;;;;;;;10.00;5.57;;;;;;;0.00;100.00;97489.38;5028109;28;20087;-57
2022/12/06 01:22:37;;;;;;;11.77;5.88;;;;;;;0.00;100.00;97486.72;5027273;28;20321;-59
2022/12/06 01:25:04;;;;;;;8.68;5.88;;;;;;;0.06;100.00;97495.81;5013643;28;20116;-58
2022/12/06 01:27:30;;;;;;;8.40;6.10;;;;;;;0.08;100.00;97489.28;5026932;28;20045;-58
2022/12/06 01:29:57;;;;;;;8.55;5.30;;;;;;;0.17;100.00;97490.03;5027733;28;20116;-58
2022/12/06 01:32:24;;;;;;;8.60;5.82;;;;;;;0.22;100.00;97497.50;5027130;28;20072;-57
2022/12/06 01:34:51;;;;;;;8.85;5.45;;;;;;;0.32;100.00;97491.88;5022205;28;20053;-59
2022/12/06 01:37:18;;;;;;;10.63;6.10;;;;;;;0.38;100.00;97496.50;5012493;28;20041;-58
2022/12/06 01:39:44;;;;;;;9.38;6.32;;;;;;;0.57;100.00;97491.59;5026463;28;20124;-59
2022/12/06 01:42:11;;;;;;;8.20;5.60;;;;;;;0.67;100.00;97492.16;5018149;28;20046;-58
2022/12/06 01:44:45;;;;;;;9.07;5.90;;;;;;;0.61;100.00;97483.06;5026197;28;20068;-57
2022/12/06 01:47:32;;;;;;;13.07;5.32;;;;;;;0.61;100.00;97485.72;5026550;28;20057;-59
2022/12/06 01:50:05;;;;;;;8.27;5.05;;;;;;;0.63;100.00;97483.69;5027669;28;20497;-58
2022/12/06 01:52:38;;;;;;;10.23;5.38;;;;;;;0.70;100.00;97485.63;5026313;28;20576;-59
2022/12/06 01:55:06;;;;;;;7.75;5.00;;;;;;;0.77;100.00;97487.38;5011485;28;20064;-58
2022/12/06 01:57:33;;;;;;;6.88;4.68;;;;;;;0.84;100.00;97479.44;5026395;28;20065;-59
2022/12/06 02:00:00;;;;;;;9.10;5.13;;;;;;;0.79;100.00;97481.84;5026652;28;20087;-59
2022/12/06 02:02:36;;;;;;;8.15;5.30;;;;;;;0.70;100.00;97481.13;5026706;28;20092;-58
2022/12/06 02:05:03;;;;;;;7.60;4.72;;;;;;;0.80;100.00;97477.34;5026073;28;20509;-57
2022/12/06 02:07:30;;;;;;;9.10;5.40;;;;;;;0.85;100.00;97475.75;5026587;28;20228;-59
2022/12/06 02:09:57;;;;;;;10.43;5.30;;;;;;;0.85;100.00;97472.28;5026148;28;20438;-58
2022/12/06 02:12:24;;;;;;;8.45;5.20;;;;;;;0.78;100.00;97469.53;5026169;28;20053;-58
2022/12/06 02:14:53;;;;;;;8.77;4.82;;;;;;;0.84;100.00;97471.44;5026561;28;20042;-58
2022/12/06 02:17:31;;;;;;;9.18;5.35;;;;;;;0.85;100.00;97473.09;5026091;28;20125;-57
2022/12/06 02:20:10;;;;;;;8.38;5.07;;;;;;;0.88;100.00;97467.41;5015266;28;20049;-57
2022/12/06 02:22:55;;;;;;;8.32;5.13;;;;;;;0.92;100.00;97465.16;5019458;28;20037;-58
2022/12/06 02:25:46;;;;;;;9.30;5.18;;;;;;;0.85;100.00;97457.09;5018051;28;20505;-59
2022/12/06 02:28:34;;;;;;;8.40;5.78;;;;;;;0.90;100.00;97459.22;5024946;28;20063;-57
2022/12/06 02:31:26;;;;;;;8.95;5.03;;;;;;;0.88;100.00;97459.41;5015159;28;20501;-58
2022/12/06 02:34:01;;;;;;;7.50;5.18;;;;;;;0.96;100.00;97450.44;5025949;28;20045;-59
2022/12/06 02:36:39;;;;;;;9.23;5.75;;;;;;;0.99;100.00;97458.06;5025630;28;20602;-57
2022/12/06 02:39:15;;;;;;;8.55;5.32;;;;;;;0.82;100.00;97449.50;5026101;28;20569;-57
2022/12/06 02:41:48;;;;;;;8.88;5.45;;;;;;;0.82;100.00;97452.16;5025005;28;20733;-56
2022/12/06 02:44:25;;;;;;;9.48;4.88;;;;;;;0.84;100.00;97450.13;5025744;28;20041;-58
2022/12/06 02:46:54;;;;;;;8.77;5.07;;;;;;;0.99;100.00;97452.75;5025612;28;20120;-58
2022/12/06 02:49:23;;;;;;;7.55;4.70;;;;;;;1.11;100.00;97454.94;5017988;28;20076;-57
2022/12/06 02:51:53;;;;;;;7.85;5.00;;;;;;;1.00;100.00;97451.72;5021092;28;20041;-58
2022/12/06 02:54:21;;;;;;;8.80;5.13;;;;;;;0.94;100.00;97449.00;5020740;28;20072;-58
2022/12/06 02:56:48;;;;;;;9.30;5.68;;;;;;;1.02;100.00;97448.88;5025989;28;20064;-58
2022/12/06 02:59:14;;;;;;;9.27;5.82;;;;;;;1.04;100.00;97449.53;5024237;28;20100;-58
2022/12/06 03:01:50;;;;;;;7.82;4.90;;;;;;;1.01;100.00;97447.22;5025634;28;20493;-58
2022/12/06 03:04:33;;;;;;;10.05;5.32;;;;;;;1.03;100.00;97439.84;5026035;28;20053;-59
2022/12/06 03:07:34;;;;;;;8.07;5.28;;;;;;;1.06;100.00;97450.16;5025260;28;20225;-58
2022/12/06 03:10:22;;;;;;;10.70;5.43;;;;;;;1.07;100.00;97446.47;5025117;28;20102;-59
2022/12/06 03:13:02;;;;;;;8.35;5.10;;;;;;;1.04;100.00;97453.00;5025607;28;20052;-59
2022/12/06 03:15:53;;;;;;;10.63;5.00;;;;;;;1.08;100.00;97441.97;5025373;28;20052;-57
2022/12/06 03:18:46;;;;;;;9.82;5.65;;;;;;;1.01;100.00;97447.22;5025605;28;20041;-58
2022/12/06 03:21:20;;;;;;;8.77;5.43;;;;;;;1.01;100.00;97441.91;5013956;28;20128;-58
2022/12/06 03:23:49;;;;;;;9.70;6.00;;;;;;;0.97;100.00;97445.94;5016234;28;20056;-58
2022/12/06 03:26:20;;;;;;;8.30;5.45;;;;;;;1.11;100.00;97438.94;5014503;28;20041;-57
2022/12/06 03:28:49;;;;;;;7.63;4.97;;;;;;;1.32;100.00;97435.44;5023896;28;20042;-59
2022/12/06 03:31:16;;;;;;;8.23;5.07;;;;;;;1.32;100.00;97432.75;5022803;28;20296;-58
2022/12/06 03:33:54;;;;;;;9.13;5.30;;;;;;;1.30;100.00;97430.28;5023912;28;20623;-58
2022/12/06 03:36:23;;;;;;;9.45;5.40;;;;;;;1.23;100.00;97420.56;5025379;28;20034;-58
2022/12/06 03:38:57;;;;;;;7.82;4.93;;;;;;;1.51;100.00;97425.94;5025236;28;20423;-58
2022/12/06 03:41:28;;;;;;;9.30;5.05;;;;;;;1.40;100.00;97421.97;5024805;28;20133;-58
2022/12/06 03:43:56;;;;;;;8.98;5.57;;;;;;;1.34;100.00;97425.41;5025367;28;20088;-57
2022/12/06 03:46:29;;;;;;;9.00;5.20;;;;;;;1.33;100.00;97415.75;5023948;28;20076;-58
2022/12/06 03:49:05;;;;;;;8.40;4.75;;;;;;;1.37;100.00;97424.19;5021213;28;20049;-58
2022/12/06 03:51:35;;;;;;;9.05;5.47;;;;;;;1.37;100.00;97421.53;5014802;28;20096;-58
2022/12/06 03:54:04;;;;;;;9.00;5.18;;;;;;;1.43;100.00;97421.59;5014657;28;20049;-58
2022/12/06 03:56:35;;;;;;;8.52;4.72;;;;;;;1.43;100.00;97421.59;5014358;28;20049;-59
2022/12/06 03:59:07;;;;;;;8.27;4.72;;;;;;;1.34;100.00;97414.72;5024490;28;20447;-59
2022/12/06 04:01:34;;;;;;;8.90;4.75;;;;;;;1.25;100.00;97422.03;5022642;28;20034;-58
2022/12/06 04:04:00;;;;;;;9.32;5.47;;;;;;;1.34;100.00;97417.41;5017624;28;20115;-58
2022/12/06 04:06:27;;;;;;;7.95;4.95;;;;;;;1.45;100.00;97418.72;5023553;28;20358;-55
2022/12/06 04:09:51;;;;;;;10.95;5.78;;;;;;;1.34;100.00;97420.06;5006829;28;20120;-58
2022/12/06 04:11:40;;;;;;;10.52;5.70;;;;;;;1.26;100.00;97414.88;5017704;28;20609;-57
2022/12/06 04:14:07;;;;;;;9.18;5.80;;;;;;;1.27;100.00;97417.34;5025053;28;20050;-57
2022/12/06 04:19:18;;;;;;;10.85;5.85;;;;;;;1.40;100.00;97416.63;5018055;28;20136;-59
2022/12/06 04:24:30;;;;;;;11.70;5.65;;;;;;;1.33;100.00;97402.41;5013738;28;20068;-58
2022/12/06 04:40:45;;;;;;;9.43;5.25;;;;;;;1.37;100.00;97392.19;5010790;28;20498;-55
2022/12/06 04:45:56;;;;;;;9.50;5.72;;;;;;;1.43;100.00;97388.72;5010525;28;20038;-52
2022/12/06 04:48:23;;;;;;;8.90;5.65;;;;;;;1.42;100.00;97385.25;5028591;28;20116;-51
2022/12/06 04:50:50;;;;;;;9.73;6.07;;;;;;;1.32;100.00;97378.59;5008117;28;20066;-56
2022/12/06 04:53:16;;;;;;;9.32;5.50;;;;;;;1.34;100.00;97381.88;5023809;28;20103;-50
2022/12/06 04:55:47;;;;;;;9.75;5.53;;;;;;;1.38;100.00;97381.31;5007358;28;20042;-50
2022/12/06 04:58:14;;;;;;;10.90;5.85;;;;;;;1.48;100.00;97380.16;5024695;28;20576;-54
2022/12/06 05:00:42;;;;;;;10.23;6.15;;;;;;;1.61;100.00;97379.41;5021408;28;20042;-52
2022/12/06 05:03:13;;;;;;;9.95;6.22;;;;;;;1.79;100.00;97381.59;5027926;28;20408;-52
2022/12/06 05:05:41;;;;;;;9.32;4.88;;;;;;;1.81;100.00;97387.59;5028274;28;20055;-53
2022/12/06 05:08:08;;;;;;;9.13;5.72;;;;;;;1.84;100.00;97367.69;5025809;28;20440;-53
2022/12/06 05:10:35;;;;;;;9.60;5.25;;;;;;;1.88;100.00;97367.06;5026798;28;20037;-53
2022/12/06 05:13:03;;;;;;;9.52;6.22;;;;;;;1.99;100.00;97370.22;5027441;28;20041;-51
2022/12/06 05:15:30;;;;;;;9.48;5.68;;;;;;;1.94;100.00;97366.31;5027704;28;20049;-53
2022/12/06 05:17:57;;;;;;;14.25;6.95;;;;;;;2.03;100.00;97369.63;5027722;28;20073;-52
2022/12/06 05:20:23;;;;;;;10.52;6.57;;;;;;;2.06;100.00;97371.91;5009465;28;20046;-49
2022/12/06 05:22:50;;;;;;;11.32;6.15;;;;;;;2.05;100.00;97370.28;5021183;28;20053;-51
2022/12/06 05:25:16;;;;;;;9.68;6.45;;;;;;;2.06;100.00;97376.41;5007180;28;20420;-53
2022/12/06 05:27:43;;;;;;;10.80;6.03;;;;;;;2.07;100.00;97376.22;5022131;28;20056;-51
2022/12/06 05:30:11;;;;;;;10.02;5.47;;;;;;;2.11;100.00;97366.00;5027443;28;20045;-51
2022/12/06 05:32:39;;;;;;;10.25;5.28;;;;;;;2.02;100.00;97361.81;5026890;28;20041;-51
2022/12/06 05:35:06;;;;;;;9.32;5.20;;;;;;;1.90;100.00;97359.72;5026999;28;20045;-53
2022/12/06 05:37:32;;;;;;;10.63;5.63;;;;;;;1.90;100.00;97366.88;5026702;28;20049;-53
2022/12/06 05:39:59;;;;;;;10.40;6.32;;;;;;;1.87;100.00;97367.25;5027236;28;20076;-56
2022/12/06 05:42:26;;;;;;;10.65;6.15;;;;;;;1.79;100.00;97362.91;5026712;28;20052;-57
2022/12/06 05:44:52;;;;;;;9.52;5.82;;;;;;;1.82;100.00;97383.91;5026850;28;20680;-53
2022/12/06 05:47:19;;;;;;;9.82;6.10;;;;;;;1.85;100.00;97378.16;5027344;28;20042;-54
2022/12/06 05:49:45;;;;;;;10.00;5.57;;;;;;;1.87;100.00;97372.59;5015135;28;20569;-51
2022/12/06 05:52:11;;;;;;;8.63;5.40;;;;;;;1.87;100.00;97368.09;5014961;28;20040;-51
2022/12/06 05:54:38;;;;;;;8.27;5.00;;;;;;;1.87;100.00;97373.44;5011440;28;20100;-53
2022/12/06 05:57:04;;;;;;;10.13;5.20;;;;;;;1.91;100.00;97373.88;5014406;28;20441;-55
2022/12/06 05:59:31;;;;;;;8.95;5.22;;;;;;;1.93;100.00;97375.34;5026933;28;20132;-52
2022/12/06 06:01:57;;;;;;;9.45;4.85;;;;;;;1.95;100.00;97373.28;5026345;28;20041;-55
2022/12/06 06:04:24;;;;;;;9.65;5.47;;;;;;;1.95;100.00;97377.78;5026668;28;20060;-52
2022/12/06 06:06:50;;;;;;;9.13;5.25;;;;;;;1.92;100.00;97373.66;5026136;28;20113;-52
2022/12/06 06:09:17;;;;;;;8.38;5.05;;;;;;;1.90;100.00;97381.06;5026633;28;20075;-51
2022/12/06 06:11:43;;;;;;;10.30;5.07;;;;;;;1.99;100.00;97375.56;5026192;28;20121;-53
2022/12/06 06:14:09;;;;;;;8.88;4.85;;;;;;;1.94;100.00;97368.13;5026611;28;20509;-55
2022/12/06 06:16:36;;;;;;;10.23;5.32;;;;;;;1.88;100.00;97358.25;5027075;28;20348;-57
2022/12/06 06:19:03;;;;;;;8.20;5.60;;;;;;;1.80;100.00;97353.88;5027051;28;20041;-55
2022/12/06 06:21:29;;;;;;;10.52;6.10;;;;;;;1.78;100.00;97348.75;5025998;28;20037;-55
2022/12/06 06:23:56;;;;;;;12.40;7.80;;;;;;;1.76;100.00;97348.13;5016506;28;20524;-57
2022/12/06 06:26:23;;;;;;;11.20;6.95;;;;;;;1.83;100.00;97353.50;5006115;28;20409;-56
2022/12/06 06:28:50;;;;;;;8.95;5.82;;;;;;;1.88;100.00;97360.94;5026229;28;20426;-57
2022/12/06 06:31:17;;;;;;;9.73;5.93;;;;;;;1.88;100.00;97363.59;5025177;28;20033;-53
2022/12/06 06:33:43;;;;;;;9.50;6.13;;;;;;;1.92;100.00;97362.19;5026070;28;20072;-57
2022/12/06 06:36:10;;;;;;;10.02;5.35;;;;;;;1.98;100.00;97365.91;5025664;28;20505;-52
2022/12/06 06:38:36;;;;;;;10.90;6.22;;;;;;;2.03;100.00;97364.28;5025715;28;20052;-53
2022/12/06 06:41:04;;;;;;;10.27;6.57;;;;;;;2.12;100.00;97364.97;5025860;28;20051;-51
2022/12/06 06:43:31;;;;;;;13.52;8.27;;;;;;;2.11;100.00;97367.81;5024293;28;20046;-53
2022/12/06 06:46:00;;;;;;;10.50;6.35;;;;;;;2.17;100.00;97370.53;5021220;28;20635;-53
2022/12/06 06:48:29;;;;;;;10.00;6.00;;;;;;;2.13;100.00;97371.13;5020964;28;20471;-52
2022/12/06 06:51:02;;;;;;;10.38;6.32;;;;;;;2.17;100.00;97369.69;5025078;28;20047;-52
2022/12/06 06:53:28;;;;;;;10.23;6.07;;;;;;;2.19;100.00;97373.00;5018611;28;20092;-53
2022/12/06 06:55:55;;;;;;;9.85;5.72;;;;;;;2.19;100.00;97375.69;5005350;28;20452;-50
2022/12/06 06:58:22;;;;;;;10.88;7.47;;;;;;;2.18;100.00;97372.16;5020408;28;20107;-53
2022/12/06 07:00:53;;;;;;;9.75;5.95;;;;;;;2.21;100.00;97377.13;5025548;28;20085;-56
2022/12/06 07:03:21;;;;;;;7.25;4.95;;;;;;;2.20;100.00;97372.81;5026088;28;20048;-51
2022/12/06 07:05:52;;;;;;;9.52;5.80;;;;;;;2.09;100.00;97376.03;5025831;28;20396;-55
2022/12/06 07:08:18;;;;;;;7.70;4.97;;;;;;;2.20;100.00;97380.81;5025660;28;20080;-52
2022/12/06 07:10:47;;;;;;;9.45;5.13;;;;;;;2.21;100.00;97376.28;5025330;28;20445;-52
2022/12/06 07:13:15;;;;;;;9.02;6.05;;;;;;;2.23;100.00;97382.28;5025452;28;20503;-54
2022/12/06 07:15:41;;;;;;;8.30;5.13;;;;;;;2.17;100.00;97383.88;5026489;28;20041;-56
2022/12/06 07:18:08;;;;;;;7.82;5.60;;;;;;;2.18;100.00;97377.50;5011697;28;20046;-54
2022/12/06 07:20:35;;;;;;;7.93;5.07;;;;;;;2.23;100.00;97374.25;5024461;28;20053;-50
2022/12/06 07:23:01;;;;;;;7.72;5.10;;;;;;;2.19;100.00;97381.03;5023790;28;20095;-53
2022/12/06 07:25:28;;;;;;;9.88;6.63;;;;;;;2.16;100.00;97374.22;5006115;28;20049;-54
2022/12/06 07:27:54;;;;;;;9.70;5.43;;;;;;;2.20;100.00;97375.47;5014520;28;20113;-52
2022/12/06 07:30:21;;;;;;;8.70;5.15;;;;;;;2.20;100.00;97380.81;5025908;28;20159;-52
2022/12/06 07:32:53;;;;;;;;;;;;;;;2.34;100.00;97387.06;5026439;28;20041;-54
2022/12/06 07:35:20;;;;;;;9.55;5.63;;;;;;;2.20;100.00;97380.81;5025195;28;20023;-53
2022/12/06 07:37:46;;;;;;;6.97;5.10;;;;;;;2.21;100.00;97382.47;5025575;28;20500;-55
2022/12/06 07:40:14;;;;;;;10.00;5.88;;;;;;;2.24;100.00;97391.13;5025566;28;20057;-53
2022/12/06 07:45:26;;;;;;;10.15;6.35;;;;;;;1.89;100.00;97378.59;5029548;28;20596;-52
2022/12/06 07:47:52;;;;;;;11.02;6.70;;;;;;;2.07;100.00;97386.09;5029030;28;20049;-50
2022/12/06 07:50:21;;;;;;;10.27;6.00;;;;;;;2.10;100.00;97383.00;5027642;28;20052;-53
2022/12/06 07:52:49;;;;;;;12.13;6.07;;;;;;;2.15;100.00;97385.09;5021740;28;20046;-53
2022/12/06 07:55:16;;;;;;;9.30;6.20;;;;;;;2.12;100.00;97383.66;5017189;28;20041;-50
2022/12/06 07:57:43;;;;;;;9.40;6.10;;;;;;;2.08;100.00;97383.25;5025994;28;20473;-52
2022/12/06 08:00:15;;;;;;;11.18;6.70;;;;;;;2.13;100.00;97379.16;5016108;28;20124;-51
2022/12/06 08:02:42;;;;;;;11.13;6.93;;;;;;;2.13;100.00;97384.50;5031180;28;20045;-57
2022/12/06 08:05:09;;;;;;;12.05;7.03;;;;;;;2.10;100.00;97383.00;5026700;28;20056;-54
2022/12/06 08:07:36;;;;;;;12.25;7.28;;;;;;;2.25;100.00;97382.09;5024823;28;20049;-53
2022/12/06 08:10:04;;;;;;;11.15;7.00;;;;;;;2.28;100.00;97379.81;5026890;28;20501;-54
2022/12/06 08:12:31;;;;;;;12.77;7.60;;;;;;;2.37;100.00;97385.00;5026028;28;20112;-54
2022/12/06 08:14:57;;;;;;;13.90;7.35;;;;;;;2.39;100.00;97380.31;5027233;28;20050;-51
2022/12/06 08:17:26;;;;;;;13.15;7.80;;;;;;;2.43;100.00;97378.88;5027007;28;20072;-56
2022/12/06 08:19:52;;;;;;;13.55;8.05;;;;;;;2.31;100.00;97384.78;5027870;28;20037;-55
2022/12/06 08:22:18;;;;;;;13.43;8.60;;;;;;;2.19;100.00;97389.88;5043728;28;20048;-55
2022/12/06 08:24:45;;;;;;;13.90;9.00;;;;;;;2.29;100.00;97380.66;5025799;28;20505;-54
2022/12/06 08:27:11;;;;;;;15.65;8.80;;;;;;;2.29;100.00;97378.78;5024584;28;20260;-52
2022/12/06 08:29:38;;;;;;;13.35;8.27;;;;;;;2.36;100.00;97384.16;5015351;28;20049;-56
2022/12/06 08:32:04;;;;;;;15.32;8.93;;;;;;;2.27;100.00;97378.19;5016711;28;20088;-53
2022/12/06 08:34:32;;;;;;;15.95;9.65;;;;;;;2.12;100.00;97372.97;5018456;28;20120;-57
2022/12/06 08:36:59;;;;;;;15.00;9.20;;;;;;;2.08;100.00;97369.88;5019309;28;20045;-57
2022/12/06 08:39:29;;;;;;;13.60;9.23;;;;;;;2.05;100.00;97380.13;5015320;28;20045;-55
2022/12/06 08:41:56;;;;;;;14.82;9.98;;;;;;;1.88;100.00;97380.44;5016884;28;20120;-58
2022/12/06 08:44:25;;;;;;;16.55;9.63;;;;;;;2.12;100.00;97378.31;5017945;28;20050;-55
2022/12/06 08:46:53;;;;;;;17.60;10.02;;;;;;;2.18;100.00;97382.84;5017509;28;20117;-57
2022/12/06 08:49:20;;;;;;;16.27;10.30;;;;;;;2.07;100.00;97376.22;5020943;28;20567;-56
2022/12/06 08:51:47;;;;;;;17.75;10.57;;;;;;;2.11;100.00;97374.00;5019804;28;20081;-55
2022/12/06 08:54:16;;;;;;;18.60;11.30;;;;;;;2.05;100.00;97383.63;5016344;28;20045;-56
2022/12/06 08:56:43;;;;;;;21.13;13.07;;;;;;;2.09;100.00;97384.03;5017827;28;20124;-57
2022/12/06 08:59:10;;;;;;;18.10;11.27;;;;;;;2.09;100.00;97394.72;5016889;28;20069;-57
2022/12/06 09:01:37;;;;;;;19.98;12.18;;;;;;;2.15;100.00;97393.97;5017800;28;20120;-55
2022/12/06 09:04:06;;;;;;;19.58;12.05;;;;;;;2.07;100.00;97399.47;5015079;28;20049;-56
2022/12/06 09:06:33;;;;;;;20.75;12.90;;;;;;;2.05;100.00;97390.81;5015254;28;20061;-54
2022/12/06 09:08:59;;;;;;;23.17;13.48;;;;;;;2.10;100.00;97399.03;5019540;28;20050;-53
2022/12/06 09:11:26;;;;;;;21.98;12.20;;;;;;;2.09;100.00;97397.41;5016144;28;20037;-56
2022/12/06 09:13:52;;;;;;;23.83;13.55;;;;;;;2.09;100.00;97400.06;5016478;28;20489;-55
2022/12/06 09:16:21;;;;;;;25.27;15.00;;;;;;;2.07;100.00;97397.59;5014798;28;20112;-54
2022/12/06 09:18:50;;;;;;;22.48;13.50;;;;;;;2.11;100.00;97394.53;5013700;28;20049;-52
2022/12/06 09:21:23;;;;;;;22.60;13.40;;;;;;;2.06;100.00;97403.13;5023296;28;20308;-54
2022/12/06 09:23:50;;;;;;;19.73;11.88;;;;;;;2.10;100.00;97395.56;5020196;28;20780;-57
2022/12/06 09:26:16;;;;;;;21.50;14.02;;;;;;;2.09;100.00;97394.72;5026196;28;20412;-57
2022/12/06 09:28:48;;;;;;;20.92;14.10;;;;;;;2.01;100.00;97400.22;5024969;28;20117;-58
2022/12/06 09:31:15;;;;;;;22.88;12.98;;;;;;;2.07;100.00;97408.28;5021815;28;20087;-56
2022/12/06 09:33:41;;;;;;;19.48;10.52;;;;;;;1.95;100.00;97408.00;5025367;28;20049;-58
2022/12/06 09:36:15;;;;;;;20.30;12.05;;;;;;;1.94;100.00;97414.38;5025468;28;20472;-57
2022/12/06 09:38:43;;;;;;;16.17;9.52;;;;;;;1.93;100.00;97414.56;5025727;28;20042;-58
2022/12/06 09:41:48;;;;;;;22.00;11.82;;;;;;;1.79;100.00;97416.31;5037248;28;20110;-59
2022/12/06 09:44:43;;;;;;;18.00;9.80;;;;;;;1.81;100.00;97415.09;5018200;28;20045;-58
2022/12/06 09:47:25;;;;;;;20.40;10.90;;;;;;;1.84;100.00;97413.88;5016668;28;20088;-59
2022/12/06 09:50:07;;;;;;;18.60;9.90;;;;;;;1.84;100.00;97411.22;5027804;28;20041;-58
2022/12/06 09:53:08;;;;;;;19.67;10.90;;;;;;;1.91;100.00;97413.91;5026436;28;20042;-59
2022/12/06 09:55:37;;;;;;;16.80;8.70;;;;;;;2.02;100.00;97400.03;5013738;28;20179;-55
2022/12/06 09:58:24;;;;;;;13.75;7.82;;;;;;;2.07;100.00;97402.13;5025682;28;20042;-57
2022/12/06 10:01:32;;;;;;;15.48;7.93;;;;;;;2.10;100.00;97407.06;5025605;28;20045;-58
2022/12/06 10:04:20;;;;;;;15.48;8.32;;;;;;;1.98;100.00;97409.47;5010841;28;20045;-56
2022/12/06 10:07:14;;;;;;;15.80;8.48;;;;;;;1.97;100.00;97406.97;5006275;28;20041;-56
2022/12/06 10:09:56;;;;;;;16.75;10.20;;;;;;;1.95;100.00;97400.00;5023834;28;20099;-58
2022/12/06 10:12:44;;;;;;;15.77;9.18;;;;;;;1.88;100.00;97409.78;4995542;28;20387;-54
2022/12/06 10:15:39;;;;;;;14.65;8.40;;;;;;;1.96;100.00;97403.50;5027164;28;20402;-55
2022/12/06 10:18:32;;;;;;;12.73;7.68;;;;;;;1.95;100.00;97408.00;5013367;28;20064;-56
2022/12/06 10:21:14;;;;;;;13.07;7.20;;;;;;;1.81;100.00;97404.41;5018369;28;20058;-52
2022/12/06 10:23:43;;;;;;;12.00;6.88;;;;;;;1.97;100.00;97412.31;5028433;28;20110;-57
2022/12/06 10:26:16;;;;;;;17.27;10.52;;;;;;;1.88;100.00;97401.78;5023287;28;20067;-54
2022/12/06 10:29:04;;;;;;;10.30;5.85;;;;;;;1.98;100.00;97403.31;5024708;28;20048;-57
2022/12/06 10:31:43;;;;;;;11.95;5.97;;;;;;;1.91;100.00;97389.88;5018154;28;20053;-52
2022/12/06 10:34:43;;;;;;;12.95;6.88;;;;;;;1.92;100.00;97386.22;5018974;28;20053;-51
2022/12/06 10:37:20;;;;;;;11.02;5.95;;;;;;;2.12;100.00;97389.00;5026712;28;20061;-56
2022/12/06 10:39:54;;;;;;;12.05;6.50;;;;;;;2.05;100.00;97382.78;5010512;28;20168;-53
2022/12/06 10:42:43;;;;;;;10.43;5.90;;;;;;;2.02;100.00;97385.84;5024023;28;20042;-56
2022/12/06 10:48:41;;;;;;;13.82;7.13;;;;;;;1.82;100.00;97381.22;5026758;28;20139;-54
2022/12/06 10:51:17;;;;;;;14.82;8.15;;;;;;;1.83;100.00;97369.50;5017762;28;20483;-59
2022/12/06 10:53:52;;;;;;;16.75;7.95;;;;;;;1.79;100.00;97378.94;5024088;28;20038;-58
2022/12/06 10:56:25;;;;;;;18.23;7.55;;;;;;;1.87;100.00;97368.09;5037376;28;20045;-54
2022/12/06 10:59:04;;;;;;;16.73;8.20;;;;;;;1.78;100.00;97372.78;5030377;28;20079;-57
2022/12/06 11:01:40;;;;;;;13.57;7.35;;;;;;;1.79;100.00;97379.78;5042899;28;20135;-55
2022/12/06 11:04:12;;;;;;;20.33;9.77;;;;;;;1.76;100.00;97380.16;5021622;28;20041;-55
2022/12/06 11:06:44;;;;;;;14.23;6.55;;;;;;;1.92;100.00;97376.34;5021579;28;20509;-53
2022/12/06 11:09:38;;;;;;;16.48;6.93;;;;;;;1.87;100.00;97381.44;4978034;28;20057;-58
2022/12/06 11:12:32;;;;;;;16.77;6.50;;;;;;;1.99;100.00;97373.72;4995321;28;20116;-58
2022/12/06 11:15:17;;;;;;;10.50;5.95;;;;;;;1.99;100.00;97376.38;5025295;28;20107;-59
2022/12/06 11:17:49;;;;;;;14.95;7.10;;;;;;;1.87;100.00;97368.09;5017295;28;20504;-55
2022/12/06 11:20:21;;;;;;;13.10;6.47;;;;;;;1.93;100.00;97361.16;5024997;28;20574;-58
2022/12/06 11:22:58;;;;;;;10.82;5.70;;;;;;;1.92;100.00;97370.19;5031941;28;20056;-60
2022/12/06 11:25:31;;;;;;;13.80;5.97;;;;;;;1.95;100.00;97364.44;5014156;28;20132;-54
2022/12/06 11:28:10;;;;;;;10.45;5.45;;;;;;;2.03;100.00;97374.16;5032752;28;20320;-55
2022/12/06 11:30:37;;;;;;;9.05;4.47;;;;;;;2.07;100.00;97367.41;5023950;28;20050;-51
2022/12/06 11:33:04;;;;;;;8.10;4.07;;;;;;;2.07;100.00;97364.72;5023610;28;20037;-55
2022/12/06 11:35:31;;;;;;;11.48;4.90;;;;;;;2.05;100.00;97374.78;5010360;28;20061;-58
2022/12/06 11:38:02;;;;;;;8.07;4.32;;;;;;;2.07;100.00;97367.41;4985256;28;20123;-58
2022/12/06 11:40:33;;;;;;;10.83;4.90;;;;;;;2.05;100.00;97377.44;5022885;28;20096;-54
2022/12/06 11:43:04;;;;;;;10.63;4.63;;;;;;;2.03;100.00;97377.63;5015230;28;20280;-59
2022/12/06 11:45:33;;;;;;;7.22;4.28;;;;;;;2.06;100.00;97379.09;5009699;28;21371;-59
2022/12/06 11:48:09;;;;;;;10.95;5.75;;;;;;;1.99;100.00;97375.56;4977479;28;20050;-59
2022/12/06 11:50:36;;;;;;;9.57;4.30;;;;;;;2.01;100.00;97376.19;5020376;28;20129;-58
2022/12/06 11:53:24;;;;;;;7.53;3.92;;;;;;;1.98;100.00;97372.06;5023667;28;20045;-59
2022/12/06 11:55:54;;;;;;;8.63;4.25;;;;;;;1.84;100.00;97378.38;5021724;28;20050;-55
2022/12/06 11:58:29;;;;;;;9.10;4.40;;;;;;;1.71;100.00;97376.41;5023382;28;20501;-55
2022/12/06 12:00:58;;;;;;;10.88;4.82;;;;;;;1.74;100.00;97378.69;5023252;28;20050;-59
2022/12/06 12:03:30;;;;;;;9.48;4.57;;;;;;;1.87;100.00;97375.28;5027177;28;20033;-59
2022/12/06 12:06:17;;;;;;;10.05;4.65;;;;;;;1.83;100.00;97374.84;5017546;28;20049;-60
2022/12/06 12:08:59;;;;;;;12.77;5.53;;;;;;;1.92;100.00;97376.34;5022618;28;20052;-59
2022/12/06 12:11:30;;;;;;;9.60;4.85;;;;;;;1.77;100.00;97381.00;4987059;28;20145;-61
2022/12/06 12:14:03;;;;;;;9.93;5.00;;;;;;;1.74;100.00;97381.38;5003544;28;20602;-59
2022/12/06 12:16:36;;;;;;;9.20;5.63;;;;;;;1.66;100.00;97377.81;5022839;28;20125;-59